createdAt,value
2019-02-27T00:01:53.621Z,99379.03
2019-02-27T00:04:22.411Z,99384.76
2019-02-27T00:06:51.085Z,99383.94
2019-02-27T00:09:19.531Z,99385.30
2019-02-27T00:11:48.176Z,99377.36
2019-02-27T00:14:16.645Z,99376.03
2019-02-27T00:16:45.545Z,99378.41
2019-02-27T00:19:13.932Z,99375.09
2019-02-27T00:21:43.527Z,99374.05
2019-02-27T00:24:12.452Z,99378.63
2019-02-27T00:26:42.478Z,99368.79
2019-02-27T00:29:11.316Z,99364.73
2019-02-27T00:31:39.780Z,99347.05
2019-02-27T00:34:27.525Z,99356.66
2019-02-27T00:36:55.916Z,99354.19
2019-02-27T00:39:24.596Z,99357.92
2019-02-27T00:41:53.007Z,99363.30
2019-02-27T00:44:21.662Z,99352.64
2019-02-27T00:46:50.078Z,99353.20
2019-02-27T00:49:18.724Z,99349.16
2019-02-27T00:51:47.132Z,99338.95
2019-02-27T00:54:15.786Z,99348.70
2019-02-27T00:56:45.050Z,99333.72
2019-02-27T00:59:14.301Z,99336.49
2019-02-27T01:01:42.708Z,99334.19
2019-02-27T01:04:11.100Z,99336.88
2019-02-27T01:06:39.507Z,99337.72
2019-02-27T01:09:48.055Z,99339.13
2019-02-27T01:12:16.487Z,99330.50
2019-02-27T01:14:44.871Z,99326.92
2019-02-27T01:17:13.496Z,99327.77
2019-02-27T01:19:43.017Z,99325.91
2019-02-27T01:22:12.399Z,99326.19
2019-02-27T01:24:41.086Z,99325.08
2019-02-27T01:27:09.773Z,99320.70
2019-02-27T01:29:38.167Z,99313.00
2019-02-27T01:32:06.580Z,99302.91
2019-02-27T01:34:35.316Z,99302.02
2019-02-27T01:37:04.000Z,99300.02
2019-02-27T01:39:32.641Z,99300.14
2019-02-27T01:42:01.022Z,99296.58
2019-02-27T01:44:29.423Z,99294.37
2019-02-27T01:47:01.827Z,99293.00
2019-02-27T01:49:28.085Z,99287.02
2019-02-27T01:51:59.151Z,99279.80
2019-02-27T01:54:26.863Z,99279.22
2019-02-27T01:56:55.268Z,99272.34
2019-02-27T01:59:23.920Z,99281.95
2019-02-27T02:01:52.600Z,99267.32
2019-02-27T02:04:21.290Z,99273.17
2019-02-27T02:06:49.698Z,99273.45
2019-02-27T02:09:37.518Z,99271.95
2019-02-27T02:12:25.763Z,99265.96
2019-02-27T02:15:32.973Z,99265.60
2019-02-27T02:18:40.032Z,99266.35
2019-02-27T02:21:47.015Z,99263.22
2019-02-27T02:24:54.850Z,99255.64
2019-02-27T02:28:01.829Z,99262.29
2019-02-27T02:31:08.867Z,99256.82
2019-02-27T02:34:17.168Z,99267.38
2019-02-27T02:37:24.398Z,99248.98
2019-02-27T02:40:32.074Z,99251.22
2019-02-27T02:43:41.890Z,99251.30
2019-02-27T02:46:50.500Z,99249.83
2019-02-27T02:49:59.108Z,99247.80
2019-02-27T02:53:06.090Z,99244.16
2019-02-27T02:56:14.404Z,99243.86
2019-02-27T02:59:24.951Z,99239.70
2019-02-27T03:02:31.669Z,99232.00
2019-02-27T03:05:40.023Z,99234.72
2019-02-27T03:08:47.251Z,99228.06
2019-02-27T03:11:55.909Z,99222.60
2019-02-27T03:15:03.105Z,99216.46
2019-02-27T03:18:10.320Z,99215.34
2019-02-27T03:21:17.553Z,99223.48
2019-02-27T03:24:27.922Z,99216.61
2019-02-27T03:27:34.802Z,99219.08
2019-02-27T03:30:41.799Z,99209.69
2019-02-27T03:33:49.031Z,99211.20
2019-02-27T03:36:56.008Z,99213.35
2019-02-27T03:40:03.022Z,99220.77
2019-02-27T03:43:11.477Z,99214.50
2019-02-27T03:46:20.035Z,99209.31
2019-02-27T03:49:27.248Z,99205.16
2019-02-27T03:52:36.345Z,99213.61
2019-02-27T03:55:43.181Z,99216.34
2019-02-27T03:58:51.505Z,99204.50
2019-02-27T04:01:58.709Z,99205.44
2019-02-27T04:05:07.363Z,99206.27
2019-02-27T04:08:14.419Z,99208.20
2019-02-27T04:11:05.520Z,99209.23
2019-02-27T04:13:33.036Z,99203.73
2019-02-27T04:16:01.433Z,99204.30
2019-02-27T04:18:28.968Z,99208.08
2019-02-27T04:21:37.291Z,99203.07
2019-02-27T04:24:05.696Z,99197.94
2019-02-27T04:26:34.103Z,99201.20
2019-02-27T04:29:04.492Z,99206.28
2019-02-27T04:31:33.189Z,99202.19
2019-02-27T04:34:01.609Z,99203.53
2019-02-27T04:36:29.998Z,99199.59
2019-02-27T04:39:00.058Z,99199.02
2019-02-27T04:41:28.756Z,99200.11
2019-02-27T04:43:57.156Z,99192.40
2019-02-27T04:46:25.560Z,99200.30
2019-02-27T04:48:54.256Z,99197.08
2019-02-27T04:51:22.669Z,99195.13
2019-02-27T04:53:51.064Z,99196.92
2019-02-27T04:56:23.165Z,99193.83
2019-02-27T04:58:49.928Z,99197.61
2019-02-27T05:01:18.555Z,99191.38
2019-02-27T05:03:46.964Z,99187.33
2019-02-27T05:06:15.364Z,99191.50
2019-02-27T05:08:43.758Z,99187.13
2019-02-27T05:11:14.154Z,99190.11
2019-02-27T05:13:42.857Z,99187.66
2019-02-27T05:16:13.884Z,99189.75
2019-02-27T05:18:41.661Z,99195.08
2019-02-27T05:21:10.058Z,99192.02
2019-02-27T05:23:38.467Z,99193.64
2019-02-27T05:26:07.104Z,99192.78
2019-02-27T05:28:35.625Z,99200.41
2019-02-27T05:31:44.145Z,99197.98
2019-02-27T05:34:13.703Z,99195.20
2019-02-27T05:36:43.324Z,99196.48
2019-02-27T05:39:11.720Z,99194.74
2019-02-27T05:41:40.133Z,99193.91
2019-02-27T05:44:08.867Z,99193.88
2019-02-27T05:46:38.324Z,99203.22
2019-02-27T05:49:07.632Z,99204.94
2019-02-27T05:51:36.360Z,99200.30
2019-02-27T05:54:05.148Z,99196.62
2019-02-27T05:56:33.540Z,99205.00
2019-02-27T05:59:02.188Z,99211.36
2019-02-27T06:01:30.633Z,99206.02
2019-02-27T06:03:59.024Z,99202.52
2019-02-27T06:06:27.437Z,99201.16
2019-02-27T06:08:56.072Z,99205.05
2019-02-27T06:11:24.480Z,99209.39
2019-02-27T06:13:52.872Z,99206.36
2019-02-27T06:16:21.263Z,99207.45
2019-02-27T06:18:49.670Z,99205.00
2019-02-27T06:21:18.336Z,99211.23
2019-02-27T06:23:46.744Z,99208.96
2019-02-27T06:26:15.413Z,99204.02
2019-02-27T06:28:43.820Z,99207.40
2019-02-27T06:31:12.468Z,99207.91
2019-02-27T06:34:00.508Z,99203.03
2019-02-27T06:36:29.191Z,99199.52
2019-02-27T06:39:00.094Z,99195.50
2019-02-27T06:41:28.307Z,99197.53
2019-02-27T06:43:58.933Z,99198.94
2019-02-27T06:46:26.820Z,99198.03
2019-02-27T06:49:17.564Z,99197.38
2019-02-27T06:51:44.967Z,99198.73
2019-02-27T06:54:18.120Z,99189.77
2019-02-27T06:56:43.775Z,99185.37
2019-02-27T06:59:12.452Z,99184.66
2019-02-27T07:01:40.850Z,99187.95
2019-02-27T07:04:09.517Z,99194.83
2019-02-27T07:06:38.205Z,99195.35
2019-02-27T07:09:46.764Z,99186.17
2019-02-27T07:12:15.515Z,99188.36
2019-02-27T07:14:43.909Z,99192.34
2019-02-27T07:17:12.580Z,99187.94
2019-02-27T07:19:41.268Z,99187.45
2019-02-27T07:22:12.543Z,99188.34
2019-02-27T07:24:40.069Z,99182.61
2019-02-27T07:27:08.471Z,99182.70
2019-02-27T07:29:37.135Z,99175.09
2019-02-27T07:32:05.525Z,99179.49
2019-02-27T07:34:33.921Z,99165.88
2019-02-27T07:37:02.579Z,99169.26
2019-02-27T07:39:32.764Z,99166.83
2019-02-27T07:42:01.105Z,99170.06
2019-02-27T07:44:34.697Z,99162.55
2019-02-27T07:46:59.881Z,99162.05
2019-02-27T07:49:30.836Z,99161.37
2019-02-27T07:51:58.688Z,99158.44
2019-02-27T07:54:29.056Z,99154.64
2019-02-27T07:56:57.491Z,99161.24
2019-02-27T07:59:25.906Z,99155.01
2019-02-27T08:01:54.567Z,99156.14
2019-02-27T08:04:23.084Z,99154.03
2019-02-27T08:06:51.456Z,99156.26
2019-02-27T08:09:20.107Z,99156.08
2019-02-27T08:11:48.555Z,99163.51
2019-02-27T08:14:17.267Z,99162.48
2019-02-27T08:16:45.669Z,99158.73
2019-02-27T08:19:14.134Z,99159.90
2019-02-27T08:21:42.523Z,99155.02
2019-02-27T08:24:11.191Z,99154.75
2019-02-27T08:26:39.584Z,99158.89
2019-02-27T08:29:07.969Z,99153.70
2019-02-27T08:31:36.365Z,99150.78
2019-02-27T08:34:05.068Z,99149.43
2019-02-27T08:36:33.713Z,99145.92
2019-02-27T08:39:02.150Z,99145.11
2019-02-27T08:41:31.517Z,99150.34
2019-02-27T08:44:00.712Z,99153.08
2019-02-27T08:46:29.148Z,99149.48
2019-02-27T08:48:57.556Z,99150.63
2019-02-27T08:51:26.003Z,99148.16
2019-02-27T08:53:59.072Z,99149.89
2019-02-27T08:56:25.075Z,99123.23
2019-02-27T08:58:53.697Z,99141.10
2019-02-27T09:01:22.416Z,99133.98
2019-02-27T09:03:52.525Z,99126.02
2019-02-27T09:06:21.208Z,99127.67
2019-02-27T09:08:49.603Z,99132.03
2019-02-27T09:11:18.274Z,99118.05
2019-02-27T09:13:46.967Z,99119.97
2019-02-27T09:16:15.644Z,99111.66
2019-02-27T09:18:44.249Z,99110.78
2019-02-27T09:21:14.449Z,99111.30
2019-02-27T09:23:43.135Z,99103.09
2019-02-27T09:26:11.537Z,99098.33
2019-02-27T09:28:44.232Z,99091.78
2019-02-27T09:31:12.090Z,99093.09
2019-02-27T09:33:41.055Z,99089.39
2019-02-27T09:36:10.370Z,99086.55
2019-02-27T09:38:39.974Z,99082.59
2019-02-27T09:41:12.114Z,99089.13
2019-02-27T09:43:38.875Z,99084.34
2019-02-27T09:46:07.268Z,99084.09
2019-02-27T09:48:35.651Z,99083.44
2019-02-27T09:51:04.049Z,99085.47
2019-02-27T09:53:34.026Z,99088.47
2019-02-27T09:56:21.912Z,99088.47
2019-02-27T09:58:50.292Z,99087.25
2019-02-27T10:01:18.668Z,99073.55
2019-02-27T10:03:47.404Z,99068.56
2019-02-27T10:06:15.794Z,99065.34
2019-02-27T10:08:44.195Z,99062.02
2019-02-27T10:11:12.851Z,99063.53
2019-02-27T10:13:41.241Z,99066.30
2019-02-27T10:16:09.912Z,99060.68
2019-02-27T10:18:38.305Z,99066.19
2019-02-27T10:21:09.438Z,99058.79
2019-02-27T10:23:37.084Z,99055.67
2019-02-27T10:26:05.470Z,99052.98
2019-02-27T10:28:38.865Z,99052.98
2019-02-27T10:31:04.589Z,99048.23
2019-02-27T10:33:32.995Z,99041.24
2019-02-27T10:36:03.773Z,99036.09
2019-02-27T10:38:31.773Z,99032.02
2019-02-27T10:41:00.168Z,99023.80
2019-02-27T10:43:28.851Z,99029.03
2019-02-27T10:45:57.261Z,99024.34
2019-02-27T10:48:25.869Z,99019.11
2019-02-27T10:50:54.256Z,99019.11
2019-02-27T10:53:27.219Z,99013.23
2019-02-27T10:55:53.138Z,99006.21
2019-02-27T10:58:41.124Z,99003.45
2019-02-27T11:01:09.515Z,99003.45
2019-02-27T11:06:34.222Z,98999.41
2019-02-27T11:09:23.199Z,98958.51
2019-02-27T11:12:11.014Z,98961.60
2019-02-27T11:14:59.052Z,98965.77
2019-02-27T11:17:27.445Z,98965.77
2019-02-27T11:19:55.837Z,98960.29
2019-02-27T11:22:24.499Z,98956.42
2019-02-27T11:25:31.710Z,98943.93
2019-02-27T11:28:19.841Z,98934.94
2019-02-27T11:30:48.618Z,98934.94
2019-02-27T11:33:36.656Z,98919.41
2019-02-27T11:36:05.758Z,98919.41
2019-02-27T11:38:56.643Z,98925.39
2019-02-27T11:41:25.140Z,98925.39
2019-02-27T11:44:14.331Z,98908.59
2019-02-27T11:47:02.691Z,98920.83
2019-02-27T11:49:31.097Z,98920.83
2019-02-27T11:51:59.485Z,98913.80
2019-02-27T11:54:27.872Z,98911.75
2019-02-27T11:56:56.985Z,98903.27
2019-02-27T11:59:26.375Z,98903.27
2019-02-27T12:02:14.183Z,98893.72
2019-02-27T12:04:42.807Z,98893.72
2019-02-27T12:07:30.550Z,98886.84
2019-02-27T12:10:37.525Z,98884.59
2019-02-27T12:13:06.414Z,98884.59
2019-02-27T12:15:34.871Z,98881.58
2019-02-27T12:18:03.259Z,98873.61
2019-02-27T12:20:31.661Z,98869.60
2019-02-27T12:23:00.051Z,98850.80
2019-02-27T12:25:30.080Z,98860.90
2019-02-27T12:27:58.841Z,98865.74
2019-02-27T12:30:46.586Z,98848.66
2019-02-27T12:36:23.366Z,98841.67
2019-02-27T12:39:15.131Z,98849.96
2019-02-27T12:42:01.290Z,98841.39
2019-02-27T12:44:53.939Z,98826.34
2019-02-27T12:47:19.752Z,98826.34
2019-02-27T12:49:48.137Z,98832.05
2019-02-27T12:52:16.820Z,98824.06
2019-02-27T12:54:45.519Z,98827.95
2019-02-27T12:57:17.370Z,98818.50
2019-02-27T12:59:44.306Z,98818.91
2019-02-27T13:02:12.694Z,98818.91
2019-02-27T13:04:41.374Z,98797.42
2019-02-27T13:07:10.764Z,98812.42
2019-02-27T13:09:39.875Z,98801.73
2019-02-27T13:12:08.327Z,98801.45
2019-02-27T13:14:37.040Z,98796.82
2019-02-27T13:17:25.026Z,98790.73
2019-02-27T13:19:53.410Z,98784.55
2019-02-27T13:22:22.144Z,98779.55
2019-02-27T13:24:50.949Z,98783.47
2019-02-27T13:27:40.265Z,98773.55
2019-02-27T13:30:29.790Z,98768.55
2019-02-27T13:33:01.203Z,98764.47
2019-02-27T13:35:28.930Z,98757.83
2019-02-27T13:37:58.553Z,98741.45
2019-02-27T13:41:07.704Z,98746.03
2019-02-27T13:43:37.544Z,98741.54
2019-02-27T13:46:05.928Z,98732.84
2019-02-27T13:48:34.401Z,98731.38
2019-02-27T13:51:02.805Z,98729.53
2019-02-27T13:53:31.471Z,98727.20
2019-02-27T13:55:59.866Z,98729.63
2019-02-27T13:58:28.540Z,98727.87
2019-02-27T14:00:57.238Z,98724.05
2019-02-27T14:03:25.628Z,98718.36
2019-02-27T14:05:54.306Z,98723.16
2019-02-27T14:08:22.708Z,98725.92
2019-02-27T14:10:53.329Z,98723.38
2019-02-27T14:13:21.290Z,98712.63
2019-02-27T14:15:49.955Z,98709.53
2019-02-27T14:18:18.650Z,98707.72
2019-02-27T14:20:47.332Z,98708.43
2019-02-27T14:23:16.011Z,98707.95
2019-02-27T14:25:44.477Z,98705.03
2019-02-27T14:28:12.866Z,98703.91
2019-02-27T14:31:21.432Z,98701.34
2019-02-27T14:33:51.240Z,98699.50
2019-02-27T14:36:20.266Z,98704.33
2019-02-27T14:38:48.662Z,98702.75
2019-02-27T14:41:17.425Z,98702.59
2019-02-27T14:43:45.771Z,98700.63
2019-02-27T14:46:14.157Z,98699.48
2019-02-27T14:48:42.564Z,98697.63
2019-02-27T14:51:11.273Z,98688.56
2019-02-27T14:53:41.056Z,98695.11
2019-02-27T14:56:10.237Z,98694.60
2019-02-27T14:58:39.905Z,98691.09
2019-02-27T15:04:03.309Z,98688.09
2019-02-27T15:06:31.973Z,98680.23
2019-02-27T15:09:03.322Z,98685.42
2019-02-27T15:11:31.126Z,98671.37
2019-02-27T15:14:00.775Z,98679.86
2019-02-27T15:16:41.102Z,98675.78
2019-02-27T15:19:09.503Z,98674.44
2019-02-27T15:21:38.215Z,98671.02
2019-02-27T15:24:25.959Z,98664.44
2019-02-27T15:26:54.414Z,98664.64
2019-02-27T15:29:22.804Z,98666.97
2019-02-27T15:31:52.254Z,98659.73
2019-02-27T15:34:21.934Z,98654.61
2019-02-27T15:36:50.613Z,98648.41
2019-02-27T15:39:21.156Z,98648.87
2019-02-27T15:41:49.118Z,98646.62
2019-02-27T15:44:17.499Z,98638.79
2019-02-27T15:46:45.884Z,98629.11
2019-02-27T15:49:15.113Z,98632.08
2019-02-27T15:51:45.004Z,98623.28
2019-02-27T15:54:13.425Z,98625.99
2019-02-27T15:56:45.252Z,98622.63
2019-02-27T15:59:12.207Z,98614.20
2019-02-27T16:01:40.603Z,98612.84
2019-02-27T16:04:08.996Z,98618.03
2019-02-27T16:06:39.763Z,98613.14
2019-02-27T16:09:47.724Z,98614.34
2019-02-27T16:12:16.168Z,98608.05
2019-02-27T16:14:44.600Z,98603.41
2019-02-27T16:17:12.992Z,98592.66
2019-02-27T16:19:42.198Z,98600.23
2019-02-27T16:22:11.798Z,98595.16
2019-02-27T16:24:41.953Z,98596.09
2019-02-27T16:27:32.143Z,98587.52
2019-02-27T16:29:59.855Z,98587.52
2019-02-27T16:32:28.464Z,98587.03
2019-02-27T16:34:56.854Z,98594.22
2019-02-27T16:37:25.537Z,98590.08
2019-02-27T16:40:34.118Z,98597.09
2019-02-27T16:43:02.520Z,98597.09
2019-02-27T16:46:11.044Z,98608.31
2019-02-27T16:48:39.453Z,98602.61
2019-02-27T16:51:07.860Z,98606.70
2019-02-27T16:53:36.233Z,98598.25
2019-02-27T16:56:04.978Z,98585.20
2019-02-27T16:58:33.855Z,98577.84
2019-02-27T17:03:38.795Z,98582.77
2019-02-27T17:06:07.500Z,98580.61
2019-02-27T17:08:36.268Z,98576.51
2019-02-27T17:11:04.732Z,98573.68
2019-02-27T17:13:33.456Z,98578.41
2019-02-27T17:16:01.845Z,98573.47
2019-02-27T17:18:30.534Z,98569.32
2019-02-27T17:20:58.911Z,98558.61
2019-02-27T17:23:27.298Z,98554.30
2019-02-27T17:25:55.981Z,98558.81
2019-02-27T17:28:24.648Z,98564.02
2019-02-27T17:30:53.338Z,98565.03
2019-02-27T17:33:41.375Z,98568.36
2019-02-27T17:36:09.783Z,98561.88
2019-02-27T17:38:38.169Z,98569.48
2019-02-27T17:41:08.947Z,98572.20
2019-02-27T17:43:36.945Z,98566.86
2019-02-27T17:46:05.730Z,98572.06
2019-02-27T17:48:34.172Z,98568.30
2019-02-27T17:51:05.550Z,98568.91
2019-02-27T17:53:32.923Z,98561.89
2019-02-27T17:56:01.326Z,98557.58
2019-02-27T17:58:33.585Z,98557.66
2019-02-27T18:01:18.950Z,98562.07
2019-02-27T18:03:47.341Z,98562.59
2019-02-27T18:06:16.119Z,98564.61
2019-02-27T18:08:49.068Z,98565.91
2019-02-27T18:11:34.573Z,98561.86
2019-02-27T18:14:03.262Z,98560.67
2019-02-27T18:16:31.648Z,98554.25
2019-02-27T18:19:00.321Z,98561.46
2019-02-27T18:21:33.221Z,98562.13
2019-02-27T18:24:18.888Z,98560.00
2019-02-27T18:26:50.047Z,98562.31
2019-02-27T18:29:17.401Z,98559.05
2019-02-27T18:31:45.807Z,98560.05
2019-02-27T18:34:14.457Z,98559.14
2019-02-27T18:36:46.331Z,98557.32
2019-02-27T18:39:13.100Z,98558.92
2019-02-27T18:41:41.739Z,98560.46
2019-02-27T18:44:10.426Z,98557.44
2019-02-27T18:46:38.808Z,98550.32
2019-02-27T18:49:07.438Z,98553.23
2019-02-27T18:51:36.077Z,98553.65
2019-02-27T18:54:04.457Z,98548.78
2019-02-27T18:56:34.188Z,98552.19
2019-02-27T18:59:22.303Z,98549.95
2019-02-27T19:01:50.700Z,98541.27
2019-02-27T19:04:19.093Z,98540.00
2019-02-27T19:06:47.708Z,98541.36
2019-02-27T19:09:16.278Z,98535.16
2019-02-27T19:11:47.479Z,98535.90
2019-02-27T19:14:15.350Z,98534.40
2019-02-27T19:16:43.744Z,98528.56
2019-02-27T19:19:13.826Z,98525.78
2019-02-27T19:21:42.627Z,98526.42
2019-02-27T19:24:11.019Z,98522.90
2019-02-27T19:26:41.746Z,98522.05
2019-02-27T19:29:09.530Z,98516.78
2019-02-27T19:31:38.191Z,98521.64
2019-02-27T19:34:07.430Z,98523.41
2019-02-27T19:36:37.403Z,98517.71
2019-02-27T19:39:45.939Z,98516.66
2019-02-27T19:42:16.206Z,98512.92
2019-02-27T19:44:44.514Z,98512.82
2019-02-27T19:47:13.141Z,98521.41
2019-02-27T19:49:41.525Z,98513.22
2019-02-27T19:52:10.016Z,98513.69
2019-02-27T19:54:38.405Z,98506.14
2019-02-27T19:57:08.493Z,98501.11
2019-02-27T19:59:37.263Z,98496.58
2019-02-27T20:02:06.043Z,98494.32
2019-02-27T20:04:34.447Z,98488.42
2019-02-27T20:07:02.827Z,98491.72
2019-02-27T20:09:31.487Z,98489.59
2019-02-27T20:11:59.871Z,98485.84
2019-02-27T20:14:28.325Z,98489.74
2019-02-27T20:16:56.791Z,98484.65
2019-02-27T20:19:28.267Z,98480.86
2019-02-27T20:21:55.955Z,98479.03
2019-02-27T20:24:24.394Z,98477.38
2019-02-27T20:26:54.690Z,98479.58
2019-02-27T20:29:23.093Z,98470.63
2019-02-27T20:31:54.416Z,98457.55
2019-02-27T20:34:21.931Z,98464.28
2019-02-27T20:36:50.386Z,98465.15
2019-02-27T20:39:18.925Z,98467.42
2019-02-27T20:41:47.309Z,98463.67
2019-02-27T20:44:15.763Z,98469.95
2019-02-27T20:46:46.344Z,98471.92
2019-02-27T20:49:14.263Z,98466.06
2019-02-27T20:51:42.683Z,98461.64
2019-02-27T20:54:11.057Z,98473.25
2019-02-27T20:56:39.676Z,98467.85
2019-02-27T20:59:08.072Z,98471.75
2019-02-27T21:01:36.451Z,98468.23
2019-02-27T21:04:04.988Z,98466.33
2019-02-27T21:06:33.372Z,98458.88
2019-02-27T21:09:02.099Z,98466.11
2019-02-27T21:11:50.239Z,98459.84
2019-02-27T21:14:38.289Z,98449.44
2019-02-27T21:17:06.968Z,98447.06
2019-02-27T21:19:37.245Z,98443.06
2019-02-27T21:22:06.079Z,98447.96
2019-02-27T21:24:37.337Z,98444.16
2019-02-27T21:27:04.883Z,98442.33
2019-02-27T21:29:33.277Z,98444.27
2019-02-27T21:32:02.367Z,98441.02
2019-02-27T21:34:32.071Z,98428.73
2019-02-27T21:37:00.691Z,98436.05
2019-02-27T21:39:29.335Z,98435.15
2019-02-27T21:42:19.315Z,98425.81
2019-02-27T21:44:47.179Z,98425.03
2019-02-27T21:47:18.351Z,98424.51
2019-02-27T21:49:45.983Z,98423.44
2019-02-27T21:52:14.367Z,98420.98
2019-02-27T21:54:42.766Z,98417.88
2019-02-27T21:57:11.143Z,98427.00
2019-02-27T21:59:40.492Z,98424.56
2019-02-27T22:02:10.067Z,98424.88
2019-02-27T22:04:41.168Z,98416.95
2019-02-27T22:07:08.564Z,98412.36
2019-02-27T22:09:37.222Z,98411.59
2019-02-27T22:12:05.618Z,98416.72
2019-02-27T22:14:34.391Z,98418.61
2019-02-27T22:17:04.951Z,98412.95
2019-02-27T22:19:33.127Z,98416.84
2019-02-27T22:22:01.848Z,98416.08
2019-02-27T22:24:30.571Z,98412.32
2019-02-27T22:26:59.254Z,98413.70
2019-02-27T22:29:28.512Z,98410.13
2019-02-27T22:31:57.993Z,98406.78
2019-02-27T22:34:27.718Z,98407.80
2019-02-27T22:36:56.495Z,98401.73
2019-02-27T22:39:24.883Z,98401.95
2019-02-27T22:41:53.518Z,98400.14
2019-02-27T22:44:21.899Z,98395.80
2019-02-27T22:46:50.281Z,98395.94
2019-02-27T22:49:18.677Z,98388.02
2019-02-27T22:51:48.332Z,98385.08
2019-02-27T22:54:17.459Z,98379.89
2019-02-27T22:56:50.068Z,98372.93
2019-02-27T22:59:15.947Z,98375.25
2019-02-27T23:02:39.010Z,98370.80
2019-02-27T23:04:54.907Z,98364.05
2019-02-27T23:07:23.444Z,98368.84
2019-02-27T23:12:59.902Z,98364.05
2019-02-27T23:15:28.287Z,98363.66
2019-02-27T23:17:56.672Z,98368.67
2019-02-27T23:20:25.422Z,98360.02
2019-02-27T23:22:54.047Z,98361.14
2019-02-27T23:25:22.446Z,98355.50
2019-02-27T23:27:50.883Z,98351.94
2019-02-27T23:30:19.279Z,98351.33
2019-02-27T23:32:47.934Z,98356.11
2019-02-27T23:35:16.898Z,98348.11
2019-02-27T23:37:46.736Z,98346.46
2019-02-27T23:40:17.552Z,98341.58
2019-02-27T23:42:45.307Z,98342.94
2019-02-27T23:45:53.848Z,98340.80
2019-02-27T23:48:22.543Z,98341.59
2019-02-27T23:50:51.175Z,98333.60
2019-02-27T23:53:19.562Z,98335.09
2019-02-27T23:55:47.950Z,98343.30
2019-02-27T23:58:16.337Z,98347.34
